Time;durP1;ratioP1;P1;durP2;ratioP2;P2;SDS_P1;SDS_P2;PMS_P1;PMS_P2;Temp;Humidity;BMP_temperature;BMP_pressure;BME280_temperature;BME280_humidity;BME280_pressure;Samples;Min_cycle;Max_cycle;Signal;HPM_P1;HPM_P2
2022/08/27 00:01:42;;;;;;;5.15;2.80;;;14.90;99.90;;;;;;5032545;28;20213;-80
2022/08/27 00:04:15;;;;;;;5.40;2.75;;;14.90;99.90;;;;;;5036142;28;20229;-80
2022/08/27 00:06:46;;;;;;;4.18;2.60;;;14.90;99.90;;;;;;5046919;28;20231;-79
2022/08/27 00:09:17;;;;;;;4.80;2.60;;;15.00;99.90;;;;;;5051871;28;20676;-80
2022/08/27 00:11:50;;;;;;;6.65;3.17;;;15.00;99.90;;;;;;5051997;28;20203;-80
2022/08/27 00:14:20;;;;;;;3.83;2.67;;;15.00;99.90;;;;;;5052361;28;20648;-80
2022/08/27 00:16:51;;;;;;;5.05;2.30;;;15.10;99.90;;;;;;5051861;28;20192;-81
2022/08/27 00:19:24;;;;;;;3.50;2.45;;;15.10;99.90;;;;;;5051155;28;20201;-80
2022/08/27 00:21:55;;;;;;;3.83;2.60;;;15.10;99.90;;;;;;5051804;28;20212;-80
2022/08/27 00:24:26;;;;;;;3.53;2.45;;;15.30;99.90;;;;;;5045635;28;20199;-81
2022/08/27 00:26:57;;;;;;;5.28;2.92;;;15.40;99.90;;;;;;5051473;28;20220;-81
2022/08/27 00:29:28;;;;;;;5.82;2.55;;;15.40;99.90;;;;;;5051498;28;20681;-81
2022/08/27 00:31:59;;;;;;;3.22;2.50;;;15.50;99.90;;;;;;5051068;28;20197;-81
2022/08/27 00:34:31;;;;;;;4.47;2.30;;;15.50;99.90;;;;;;5051047;28;20202;-82
2022/08/27 00:37:05;;;;;;;6.97;2.42;;;15.60;99.90;;;;;;5053433;28;20201;-79
2022/08/27 00:39:36;;;;;;;4.85;2.50;;;15.70;99.90;;;;;;5052220;28;20208;-81
2022/08/27 00:42:08;;;;;;;4.72;2.30;;;15.70;99.90;;;;;;5038162;28;20201;-81
2022/08/27 00:44:42;;;;;;;3.35;1.77;;;15.70;99.90;;;;;;5032100;28;20197;-81
2022/08/27 00:47:16;;;;;;;3.25;1.92;;;15.80;99.90;;;;;;5045666;28;20247;-81
2022/08/27 00:49:52;;;;;;;3.65;2.15;;;15.80;99.90;;;;;;5051603;28;20198;-81
2022/08/27 00:52:27;;;;;;;4.57;2.20;;;15.80;99.90;;;;;;5051744;28;20300;-81
2022/08/27 00:55:04;;;;;;;5.15;2.15;;;15.80;99.90;;;;;;5051516;28;20203;-82
2022/08/27 00:57:37;;;;;;;2.90;1.80;;;15.80;99.90;;;;;;5045262;28;20196;-82
2022/08/27 01:00:11;;;;;;;2.78;2.00;;;15.90;99.90;;;;;;5043510;28;20477;-82
2022/08/27 01:02:42;;;;;;;2.60;1.70;;;15.90;99.90;;;;;;5022900;28;20300;-81
2022/08/27 01:05:18;;;;;;;2.65;1.63;;;16.10;99.90;;;;;;5021301;28;20213;-81
2022/08/27 01:07:53;;;;;;;5.63;1.75;;;16.20;99.90;;;;;;5021080;28;20227;-82
2022/08/27 01:10:26;;;;;;;2.70;1.80;;;16.40;99.90;;;;;;5020769;28;20192;-81
2022/08/27 01:12:57;;;;;;;3.88;1.70;;;16.40;99.90;;;;;;5020616;28;20209;-81
2022/08/27 01:15:29;;;;;;;2.78;1.50;;;16.60;99.90;;;;;;5023009;28;21114;-82
2022/08/27 01:18:01;;;;;;;3.03;1.30;;;16.80;99.90;;;;;;5019070;28;20761;-82
2022/08/27 01:20:42;;;;;;;2.83;1.20;;;17.00;99.90;;;;;;5018928;28;20686;-81
2022/08/27 01:23:18;;;;;;;1.42;0.70;;;17.00;99.90;;;;;;5020537;28;20207;-81
2022/08/27 01:25:52;;;;;;;1.67;0.75;;;17.00;99.90;;;;;;5018677;28;20200;-81
2022/08/27 01:28:24;;;;;;;1.50;0.68;;;17.00;99.90;;;;;;5020010;28;20667;-81
2022/08/27 01:30:55;;;;;;;1.23;0.50;;;16.90;99.90;;;;;;5019761;28;20647;-81
2022/08/27 01:33:25;;;;;;;1.70;0.80;;;16.90;99.90;;;;;;5018753;28;20197;-83
2022/08/27 01:35:56;;;;;;;1.23;0.75;;;16.80;99.90;;;;;;5020423;28;20201;-82
2022/08/27 01:38:28;;;;;;;1.55;0.73;;;16.70;99.90;;;;;;5019971;28;20319;-83
2022/08/27 01:41:02;;;;;;;1.52;0.63;;;16.60;99.90;;;;;;5020455;28;20874;-81
2022/08/27 01:43:33;;;;;;;1.02;0.40;;;16.60;99.90;;;;;;5019034;28;20224;-82
2022/08/27 01:46:04;;;;;;;2.95;0.60;;;16.50;99.90;;;;;;5018047;28;20660;-81
2022/08/27 01:48:35;;;;;;;0.70;0.60;;;16.40;99.90;;;;;;5019016;28;20686;-82
2022/08/27 01:51:05;;;;;;;1.83;0.82;;;16.40;99.90;;;;;;5017470;28;20206;-82
2022/08/27 01:53:36;;;;;;;3.83;2.30;;;16.40;99.90;;;;;;5025095;28;20218;-82
2022/08/27 01:56:10;;;;;;;2.75;1.20;;;16.40;99.90;;;;;;5019956;28;20209;-82
2022/08/27 01:58:41;;;;;;;4.55;1.60;;;16.30;99.90;;;;;;5023368;28;20189;-82
2022/08/27 02:01:15;;;;;;;1.85;1.00;;;16.40;99.90;;;;;;5019122;28;20250;-80
2022/08/27 02:03:48;;;;;;;1.30;0.90;;;16.40;99.90;;;;;;5017954;28;20205;-81
2022/08/27 02:06:19;;;;;;;2.00;0.90;;;16.50;99.90;;;;;;5019802;28;20944;-84
2022/08/27 02:08:50;;;;;;;2.22;0.80;;;16.80;99.90;;;;;;5018379;28;20304;-82
2022/08/27 02:11:23;;;;;;;2.25;1.35;;;17.00;99.90;;;;;;5017388;28;20217;-82
2022/08/27 02:13:53;;;;;;;1.67;0.80;;;17.20;99.90;;;;;;5023845;28;20651;-82
2022/08/27 02:16:24;;;;;;;1.38;0.75;;;17.20;99.90;;;;;;5028072;28;20226;-80
2022/08/27 02:18:55;;;;;;;1.40;0.80;;;17.20;99.90;;;;;;5040863;28;20192;-86
2022/08/27 02:21:26;;;;;;;1.92;0.93;;;17.20;99.90;;;;;;5047662;28;20206;-81
2022/08/27 02:23:57;;;;;;;1.40;0.80;;;17.40;99.90;;;;;;5035316;28;20197;-81
2022/08/27 02:26:29;;;;;;;2.17;0.90;;;17.50;99.90;;;;;;5029671;28;20217;-81
2022/08/27 02:29:00;;;;;;;0.98;0.60;;;17.50;99.90;;;;;;5028160;28;20197;-80
2022/08/27 02:31:31;;;;;;;1.20;0.60;;;17.50;99.90;;;;;;5031774;28;20189;-80
2022/08/27 02:34:03;;;;;;;0.95;0.47;;;17.50;99.90;;;;;;5049099;28;20201;-81
2022/08/27 02:36:33;;;;;;;0.98;0.45;;;17.60;99.90;;;;;;5049678;28;20667;-81
2022/08/27 02:39:04;;;;;;;1.98;0.70;;;17.50;99.90;;;;;;5043366;28;20226;-81
2022/08/27 02:41:37;;;;;;;2.92;0.50;;;17.40;99.90;;;;;;5033882;28;20352;-81
2022/08/27 02:44:08;;;;;;;1.40;0.50;;;17.40;99.90;;;;;;5034674;28;20228;-80
2022/08/27 02:46:39;;;;;;;0.75;0.50;;;17.30;99.90;;;;;;5034105;28;20232;-81
2022/08/27 02:49:10;;;;;;;1.90;0.40;;;17.30;99.90;;;;;;5045574;28;20200;-79
2022/08/27 02:51:41;;;;;;;1.42;0.50;;;17.30;99.90;;;;;;5052075;28;20196;-81
2022/08/27 02:54:12;;;;;;;1.40;0.50;;;17.20;99.90;;;;;;5034038;28;20201;-80
2022/08/27 02:56:44;;;;;;;1.50;0.45;;;17.30;99.90;;;;;;5034834;28;20220;-81
2022/08/27 02:59:19;;;;;;;1.70;0.60;;;17.20;99.90;;;;;;5034969;28;20201;-82
2022/08/27 03:01:50;;;;;;;1.23;0.45;;;17.20;99.90;;;;;;5033436;28;20220;-80
2022/08/27 03:04:21;;;;;;;3.05;0.85;;;17.20;99.90;;;;;;5040716;28;20225;-81
2022/08/27 03:06:53;;;;;;;1.02;0.60;;;17.30;99.90;;;;;;5039450;28;20672;-81
2022/08/27 03:09:24;;;;;;;1.90;0.60;;;17.20;99.90;;;;;;5040811;28;20236;-81
2022/08/27 03:11:59;;;;;;;4.22;0.60;;;17.20;99.90;;;;;;5033340;28;20197;-81
2022/08/27 03:14:31;;;;;;;1.25;0.57;;;17.30;99.90;;;;;;5033839;28;20203;-82
2022/08/27 03:18:16;;;;;;;2.65;0.60;;;17.30;99.90;;;;;;5033384;28;20225;-82
2022/08/27 03:19:51;;;;;;;1.63;0.60;;;17.30;99.90;;;;;;5033570;28;20201;-83
2022/08/27 03:22:22;;;;;;;1.63;0.60;;;17.30;99.90;;;;;;5039984;28;20295;-82
2022/08/27 03:24:54;;;;;;;0.93;0.43;;;17.30;99.90;;;;;;5035422;28;20204;-82
2022/08/27 03:27:27;;;;;;;1.25;0.52;;;17.40;99.90;;;;;;5037185;28;20222;-82
2022/08/27 03:29:57;;;;;;;0.98;0.35;;;17.50;99.90;;;;;;5052620;28;20205;-82
2022/08/27 03:32:29;;;;;;;1.40;0.63;;;17.60;99.90;;;;;;5051918;28;20192;-82
2022/08/27 03:35:00;;;;;;;3.65;0.68;;;17.80;99.90;;;;;;5037898;28;20222;-85
2022/08/27 03:37:31;;;;;;;2.80;0.50;;;17.90;99.90;;;;;;5042728;28;20196;-82
2022/08/27 03:40:02;;;;;;;1.48;0.50;;;17.90;99.90;;;;;;5051810;28;20196;-82
2022/08/27 03:42:35;;;;;;;1.17;0.50;;;17.90;99.90;;;;;;5045250;28;20636;-83
2022/08/27 03:45:09;;;;;;;2.65;0.60;;;18.00;99.90;;;;;;5052857;28;20549;-83
2022/08/27 03:47:40;;;;;;;0.82;0.30;;;18.10;99.90;;;;;;5057211;28;20221;-81
2022/08/27 03:50:13;;;;;;;1.60;0.75;;;18.10;99.90;;;;;;5070842;28;20290;-83
2022/08/27 03:52:43;;;;;;;0.85;0.40;;;18.20;99.90;;;;;;5031460;28;20538;-82
2022/08/27 03:55:15;;;;;;;2.08;0.38;;;18.20;99.90;;;;;;5050160;28;20589;-82
2022/08/27 03:57:50;;;;;;;1.00;0.30;;;18.20;99.90;;;;;;5047649;28;20197;-82
2022/08/27 04:00:21;;;;;;;1.67;0.50;;;18.30;99.90;;;;;;5031826;28;20227;-82
2022/08/27 04:02:52;;;;;;;1.05;0.47;;;18.40;99.90;;;;;;5032466;28;20201;-83
2022/08/27 04:05:23;;;;;;;1.92;0.50;;;18.50;99.90;;;;;;5039482;28;20663;-82
2022/08/27 04:07:55;;;;;;;1.52;0.73;;;18.50;99.90;;;;;;5045428;28;20221;-82
2022/08/27 04:10:26;;;;;;;1.60;0.50;;;18.60;99.90;;;;;;5034791;28;20193;-81
2022/08/27 04:12:59;;;;;;;2.92;0.60;;;18.70;99.90;;;;;;5032155;28;20201;-81
2022/08/27 04:15:29;;;;;;;1.15;0.60;;;18.60;99.90;;;;;;5032260;28;20193;-81
2022/08/27 04:18:00;;;;;;;2.88;0.68;;;18.60;99.90;;;;;;5032252;28;20205;-82
2022/08/27 04:20:31;;;;;;;2.13;0.60;;;18.50;99.90;;;;;;5032059;28;20264;-82
2022/08/27 04:23:02;;;;;;;0.98;0.50;;;18.50;99.90;;;;;;5032637;28;20193;-82
2022/08/27 04:25:32;;;;;;;2.13;0.70;;;18.40;99.90;;;;;;5032234;28;20197;-81
2022/08/27 04:28:07;;;;;;;1.65;0.63;;;18.30;99.90;;;;;;5051504;28;20709;-81
2022/08/27 04:30:41;;;;;;;1.33;0.57;;;18.20;99.90;;;;;;5052043;28;20200;-82
2022/08/27 04:33:12;;;;;;;1.27;0.50;;;18.00;99.90;;;;;;5052392;28;20200;-81
2022/08/27 04:35:43;;;;;;;2.47;0.73;;;18.00;99.90;;;;;;5052194;28;20364;-81
2022/08/27 04:38:14;;;;;;;2.22;0.73;;;18.00;99.90;;;;;;5050052;28;20192;-81
2022/08/27 04:43:33;;;;;;;1.70;0.55;;;18.00;99.90;;;;;;5051247;28;20231;-81
2022/08/27 04:46:04;;;;;;;2.75;0.70;;;18.10;99.90;;;;;;5051744;28;20226;-82
2022/08/27 04:48:35;;;;;;;2.55;0.70;;;18.20;99.90;;;;;;5044096;28;20220;-82
2022/08/27 04:51:06;;;;;;;2.20;0.80;;;18.30;99.90;;;;;;5033977;28;20189;-81
2022/08/27 04:53:37;;;;;;;1.80;1.40;;;18.50;99.90;;;;;;5031329;28;20242;-82
2022/08/27 04:56:08;;;;;;;1.45;0.93;;;18.60;99.90;;;;;;5038826;28;20665;-82
2022/08/27 04:58:40;;;;;;;1.00;0.70;;;18.70;99.90;;;;;;5045666;28;20587;-82
2022/08/27 05:01:16;;;;;;;2.58;0.95;;;18.70;99.90;;;;;;5052026;28;20230;-82
2022/08/27 05:03:47;;;;;;;1.25;0.77;;;18.70;99.90;;;;;;5051061;28;20196;-82
2022/08/27 05:06:18;;;;;;;1.08;0.50;;;18.70;99.90;;;;;;5051146;28;20675;-82
2022/08/27 05:08:51;;;;;;;1.60;0.60;;;18.80;99.90;;;;;;5047220;28;20239;-81
2022/08/27 05:11:22;;;;;;;2.38;0.73;;;18.80;99.90;;;;;;5030660;28;20201;-81
2022/08/27 05:13:55;;;;;;;1.83;0.60;;;18.80;99.90;;;;;;5030973;28;20280;-81
2022/08/27 05:16:26;;;;;;;4.15;0.90;;;18.90;99.90;;;;;;5050586;28;20586;-81
2022/08/27 05:18:57;;;;;;;0.95;0.50;;;19.00;99.90;;;;;;5048784;28;20204;-81
2022/08/27 05:21:30;;;;;;;0.68;0.32;;;19.00;99.90;;;;;;5031276;28;20197;-81
2022/08/27 05:24:03;;;;;;;3.13;0.43;;;19.10;99.90;;;;;;5033841;28;20248;-81
2022/08/27 05:26:36;;;;;;;2.15;0.57;;;19.00;99.90;;;;;;5044248;28;20651;-81
2022/08/27 05:29:08;;;;;;;2.35;0.70;;;18.90;99.90;;;;;;5049623;28;20615;-82
2022/08/27 05:31:42;;;;;;;1.60;0.52;;;18.90;99.90;;;;;;5049270;28;20201;-81
2022/08/27 05:34:13;;;;;;;1.00;0.40;;;18.80;99.90;;;;;;5048402;28;20283;-81
2022/08/27 05:36:44;;;;;;;1.50;0.70;;;18.80;99.90;;;;;;5051035;28;20203;-81
2022/08/27 05:39:14;;;;;;;1.13;0.60;;;18.80;99.90;;;;;;5051299;28;20211;-82
2022/08/27 05:41:45;;;;;;;4.32;1.27;;;18.70;99.90;;;;;;5050587;28;20185;-82
2022/08/27 05:44:21;;;;;;;3.65;0.68;;;18.70;99.90;;;;;;5050797;28;20236;-81
2022/08/27 05:46:51;;;;;;;1.17;0.60;;;18.70;99.90;;;;;;5049391;28;20207;-81
2022/08/27 05:49:22;;;;;;;1.58;0.50;;;18.70;99.90;;;;;;5045297;28;20217;-80
2022/08/27 05:51:56;;;;;;;1.05;0.50;;;18.60;99.90;;;;;;5050807;28;20200;-79
2022/08/27 05:54:27;;;;;;;3.05;0.60;;;18.60;99.90;;;;;;5051160;28;20207;-81
2022/08/27 05:56:58;;;;;;;1.55;0.52;;;18.50;99.90;;;;;;5050393;28;20200;-81
2022/08/27 06:02:19;;;;;;;1.52;0.70;;;18.50;99.90;;;;;;5051026;28;20200;-81
2022/08/27 06:04:50;;;;;;;2.38;0.60;;;18.50;99.90;;;;;;5050304;28;20212;-82
2022/08/27 06:07:21;;;;;;;1.10;0.52;;;18.60;99.90;;;;;;5050057;28;20682;-80
2022/08/27 06:09:51;;;;;;;1.52;0.40;;;18.60;99.90;;;;;;5043448;28;20228;-79
2022/08/27 06:12:22;;;;;;;2.15;0.50;;;18.60;99.90;;;;;;5050068;28;20673;-80
2022/08/27 06:14:55;;;;;;;0.70;0.40;;;18.60;99.90;;;;;;5049950;28;20200;-81
2022/08/27 06:17:28;;;;;;;0.55;0.40;;;18.70;99.90;;;;;;5049443;28;20197;-81
2022/08/27 06:19:59;;;;;;;2.28;1.10;;;18.70;99.90;;;;;;5049923;28;20700;-80
2022/08/27 06:22:30;;;;;;;1.50;0.90;;;18.70;99.90;;;;;;5049440;28;20200;-81
2022/08/27 06:25:01;;;;;;;2.08;0.82;;;18.80;99.90;;;;;;5050095;28;20196;-82
2022/08/27 06:27:32;;;;;;;0.95;0.47;;;18.80;99.90;;;;;;5049109;28;20311;-84
2022/08/27 06:30:05;;;;;;;0.80;0.50;;;18.90;99.90;;;;;;5050304;28;20200;-84
2022/08/27 06:32:35;;;;;;;0.93;0.40;;;19.00;99.90;;;;;;5031798;28;20567;-82
2022/08/27 06:35:07;;;;;;;0.30;0.30;;;18.90;99.90;;;;;;5030078;28;20197;-84
2022/08/27 06:37:38;;;;;;;0.52;0.30;;;18.90;99.90;;;;;;5030173;28;20211;-82
2022/08/27 06:40:10;;;;;;;2.38;0.60;;;18.80;99.90;;;;;;5029994;28;20201;-83
2022/08/27 06:42:51;;;;;;;1.33;0.40;;;18.60;99.90;;;;;;5040995;28;20220;-87
2022/08/27 06:45:24;;;;;;;1.10;0.80;;;18.50;99.90;;;;;;5050154;28;20201;-86
2022/08/27 06:47:56;;;;;;;1.17;0.90;;;18.30;99.90;;;;;;5050090;28;20224;-86
2022/08/27 06:50:26;;;;;;;2.53;0.70;;;18.10;99.90;;;;;;5050955;28;20346;-86
2022/08/27 06:52:57;;;;;;;2.20;1.80;;;18.00;99.90;;;;;;5050453;28;20215;-86
2022/08/27 06:55:28;;;;;;;2.05;1.40;;;17.90;99.90;;;;;;5053711;28;20207;-84
2022/08/27 06:57:59;;;;;;;2.17;0.90;;;17.80;99.90;;;;;;5054435;28;20192;-87
2022/08/27 07:00:32;;;;;;;1.08;0.70;;;17.80;99.90;;;;;;5050025;28;20242;-87
2022/08/27 07:03:04;;;;;;;1.33;0.88;;;17.70;99.90;;;;;;5050194;28;20245;-86
2022/08/27 07:05:35;;;;;;;1.85;0.88;;;17.60;99.90;;;;;;5049819;28;20189;-87
2022/08/27 07:08:07;;;;;;;2.17;0.82;;;17.50;99.90;;;;;;5049738;28;20686;-86
2022/08/27 07:10:38;;;;;;;2.25;1.40;;;17.50;99.90;;;;;;5050907;28;20388;-84
2022/08/27 07:13:08;;;;;;;2.08;1.40;;;17.40;99.90;;;;;;5041045;28;20450;-87
2022/08/27 07:15:43;;;;;;;1.92;1.38;;;17.40;99.90;;;;;;5053558;28;20196;-85
2022/08/27 07:18:14;;;;;;;2.10;1.05;;;17.40;99.90;;;;;;5050290;28;20269;-85
2022/08/27 07:20:45;;;;;;;1.98;1.10;;;17.40;99.90;;;;;;5050581;28;20717;-86
2022/08/27 07:23:16;;;;;;;4.07;1.10;;;17.20;99.90;;;;;;5049501;28;20674;-89
2022/08/27 07:25:47;;;;;;;2.30;1.10;;;17.20;99.90;;;;;;5050945;28;20201;-87
2022/08/27 07:28:18;;;;;;;1.42;1.00;;;17.20;99.90;;;;;;5052895;28;20216;-88
2022/08/27 07:30:51;;;;;;;2.03;1.10;;;17.20;99.90;;;;;;5050513;28;20200;-90
2022/08/27 07:33:24;;;;;;;1.95;1.05;;;17.10;99.90;;;;;;5058381;28;20203;-88
2022/08/27 07:35:54;;;;;;;3.10;1.40;;;17.10;99.90;;;;;;5046249;28;20728;-88
2022/08/27 07:38:25;;;;;;;1.90;1.10;;;17.10;99.90;;;;;;5033758;28;20212;-86
2022/08/27 07:40:56;;;;;;;1.52;1.00;;;17.00;99.90;;;;;;5043397;28;20722;-86
2022/08/27 07:46:15;;;;;;;3.80;1.30;;;17.00;99.90;;;;;;5037881;28;20279;-85
2022/08/27 07:48:49;;;;;;;1.85;1.25;;;16.90;99.90;;;;;;5053733;28;20702;-87
2022/08/27 07:51:24;;;;;;;2.35;0.98;;;16.90;99.90;;;;;;5053120;28;20200;-80
2022/08/27 07:53:55;;;;;;;2.00;1.13;;;16.90;99.90;;;;;;5039055;28;20547;-83
2022/08/27 07:56:26;;;;;;;2.13;0.93;;;16.80;99.90;;;;;;5053006;28;20202;-83
2022/08/27 07:58:57;;;;;;;1.65;0.88;;;16.80;99.90;;;;;;5044728;28;20177;-81
2022/08/27 08:01:31;;;;;;;2.55;0.98;;;16.80;99.90;;;;;;5034740;28;20222;-84
2022/08/27 08:04:01;;;;;;;1.48;0.90;;;16.80;99.90;;;;;;5035829;28;20213;-84
2022/08/27 08:06:32;;;;;;;3.35;1.00;;;16.70;99.90;;;;;;5034110;28;20189;-84
2022/08/27 08:09:03;;;;;;;2.88;1.30;;;16.70;99.90;;;;;;5034020;28;20791;-84
2022/08/27 08:11:34;;;;;;;2.97;1.15;;;16.70;99.90;;;;;;5033384;28;20211;-85
2022/08/27 08:14:05;;;;;;;2.78;1.33;;;16.60;99.90;;;;;;5032941;28;20193;-84
2022/08/27 08:16:38;;;;;;;1.77;1.20;;;16.70;99.90;;;;;;5034004;28;20201;-82
2022/08/27 08:19:09;;;;;;;2.92;1.33;;;16.60;99.90;;;;;;5044297;28;20197;-82
2022/08/27 08:21:41;;;;;;;3.35;2.47;;;16.60;99.90;;;;;;5034293;28;20216;-83
2022/08/27 08:24:12;;;;;;;5.13;2.83;;;16.60;99.90;;;;;;5049163;28;20547;-82
2022/08/27 08:26:43;;;;;;;3.83;2.50;;;16.60;99.90;;;;;;5051789;28;20205;-82
2022/08/27 08:29:14;;;;;;;4.78;3.20;;;16.50;99.90;;;;;;5052169;28;20720;-86
2022/08/27 08:31:47;;;;;;;5.90;3.53;;;16.50;99.90;;;;;;5052577;28;20196;-82
2022/08/27 08:34:18;;;;;;;6.03;3.58;;;16.50;99.90;;;;;;5050945;28;20201;-81
2022/08/27 08:36:49;;;;;;;4.95;3.50;;;16.50;99.90;;;;;;5049188;28;20297;-81
2022/08/27 08:39:22;;;;;;;7.72;4.30;;;16.50;99.90;;;;;;5031526;28;20209;-81
2022/08/27 08:41:55;;;;;;;6.10;3.30;;;16.40;99.90;;;;;;5031627;28;20201;-83
2022/08/27 08:44:32;;;;;;;5.60;3.10;;;16.40;99.90;;;;;;5037912;28;20707;-82
2022/08/27 08:47:12;;;;;;;5.05;3.08;;;16.40;99.90;;;;;;5049199;28;20201;-83
2022/08/27 08:49:50;;;;;;;7.70;3.60;;;16.40;99.90;;;;;;5044688;28;20687;-82
2022/08/27 08:52:34;;;;;;;4.72;3.10;;;16.40;99.90;;;;;;5031603;28;20667;-83
2022/08/27 08:55:28;;;;;;;6.93;3.35;;;16.40;99.90;;;;;;5034682;28;20196;-82
2022/08/27 08:58:34;;;;;;;6.32;3.30;;;16.30;99.90;;;;;;5148937;27;20510;-82
2022/08/27 09:01:07;;;;;;;6.55;4.22;;;16.40;99.90;;;;;;5144357;27;20190;-82
2022/08/27 09:03:41;;;;;;;9.13;5.43;;;16.40;99.90;;;;;;5128589;28;20197;-82
2022/08/27 09:06:20;;;;;;;8.50;5.82;;;16.30;99.90;;;;;;5128806;27;20604;-81
2022/08/27 09:08:50;;;;;;;6.53;5.22;;;16.30;99.90;;;;;;5128509;27;20204;-83
2022/08/27 09:11:30;;;;;;;6.95;4.70;;;16.30;99.90;;;;;;5120890;27;20558;-82
2022/08/27 09:14:07;;;;;;;7.95;5.38;;;16.20;99.90;;;;;;5121142;28;20193;-82
2022/08/27 09:16:39;;;;;;;6.43;4.60;;;16.20;99.90;;;;;;5128298;27;20248;-82
2022/08/27 09:19:10;;;;;;;8.90;5.10;;;16.20;99.90;;;;;;5123061;27;20200;-82
2022/08/27 09:21:50;;;;;;;9.65;4.55;;;16.20;99.90;;;;;;5120683;27;20202;-82
2022/08/27 09:24:28;;;;;;;7.85;4.95;;;16.20;99.90;;;;;;5124631;27;20197;-81
2022/08/27 09:26:59;;;;;;;7.60;4.97;;;16.20;99.90;;;;;;5148358;27;20204;-82
2022/08/27 09:29:32;;;;;;;9.15;5.10;;;16.20;99.90;;;;;;5113414;27;20232;-82
2022/08/27 09:32:09;;;;;;;7.18;4.38;;;16.20;99.90;;;;;;5119498;27;20285;-82
2022/08/27 09:34:41;;;;;;;7.45;4.47;;;16.20;99.90;;;;;;5123160;27;20198;-80
2022/08/27 09:37:16;;;;;;;9.13;4.60;;;16.20;99.90;;;;;;5107196;28;20229;-81
2022/08/27 09:39:53;;;;;;;6.85;4.20;;;16.10;99.90;;;;;;5107879;28;20194;-80
2022/08/27 09:42:43;;;;;;;8.23;4.20;;;16.10;99.90;;;;;;5106856;28;20567;-80
2022/08/27 09:45:18;;;;;;;4.97;3.55;;;16.10;99.90;;;;;;5117923;27;20260;-81
2022/08/27 09:47:51;;;;;;;7.82;4.57;;;16.10;99.90;;;;;;5111545;28;20208;-81
2022/08/27 09:50:23;;;;;;;8.35;4.88;;;16.10;99.90;;;;;;5107121;28;20201;-80
2022/08/27 09:52:58;;;;;;;11.13;5.30;;;16.00;99.90;;;;;;5113521;28;20197;-80
2022/08/27 09:55:31;;;;;;;9.13;6.75;;;16.00;99.90;;;;;;5126027;28;20202;-81
2022/08/27 09:58:02;;;;;;;11.60;7.00;;;15.90;99.90;;;;;;5087531;28;20235;-81
2022/08/27 10:00:40;;;;;;;12.35;8.57;;;15.90;99.90;;;;;;5086686;28;20557;-81
2022/08/27 10:03:12;;;;;;;10.00;7.93;;;15.80;99.90;;;;;;5087073;28;20699;-81
2022/08/27 10:05:52;;;;;;;11.05;8.18;;;15.90;99.90;;;;;;5086320;28;20199;-80
2022/08/27 10:08:27;;;;;;;10.98;7.88;;;15.80;99.90;;;;;;5080118;28;20200;-80
2022/08/27 10:11:04;;;;;;;10.13;7.40;;;15.80;99.90;;;;;;5080767;28;20199;-80
2022/08/27 10:13:45;;;;;;;12.13;6.85;;;15.80;99.90;;;;;;5092972;28;20620;-80
2022/08/27 10:16:45;;;;;;;10.70;7.47;;;15.80;99.90;;;;;;5080776;28;20232;-80
2022/08/27 10:19:27;;;;;;;9.52;7.45;;;15.70;99.90;;;;;;5078886;28;20238;-80
2022/08/27 10:22:06;;;;;;;11.63;6.57;;;15.70;99.90;;;;;;5092911;28;20633;-80
2022/08/27 10:24:44;;;;;;;8.95;6.60;;;15.60;99.90;;;;;;5093012;28;20615;-80
2022/08/27 10:27:28;;;;;;;10.57;7.38;;;15.60;99.90;;;;;;5091477;28;20201;-80
2022/08/27 10:30:05;;;;;;;11.23;7.40;;;15.60;99.90;;;;;;5093136;28;20638;-80
2022/08/27 10:33:01;;;;;;;13.35;6.93;;;15.60;99.90;;;;;;5092896;28;20207;-80
2022/08/27 10:35:47;;;;;;;9.98;6.72;;;15.60;99.90;;;;;;5091895;28;20195;-80
2022/08/27 10:38:25;;;;;;;8.88;6.53;;;15.60;99.90;;;;;;5072953;28;20588;-82
2022/08/27 10:41:03;;;;;;;9.63;6.10;;;15.60;99.90;;;;;;5072609;28;20245;-80
2022/08/27 10:44:08;;;;;;;7.50;4.68;;;15.60;99.90;;;;;;5072048;28;20265;-79
2022/08/27 10:46:49;;;;;;;8.68;4.82;;;15.50;99.90;;;;;;4990765;28;20202;-79
2022/08/27 10:49:31;;;;;;;6.43;4.43;;;15.50;99.90;;;;;;5062920;28;20196;-88
2022/08/27 10:52:10;;;;;;;8.38;4.90;;;15.50;99.90;;;;;;5055105;28;20195;-87
2022/08/27 10:54:44;;;;;;;6.18;4.47;;;15.50;99.90;;;;;;5071982;28;20222;-84
2022/08/27 10:57:24;;;;;;;7.35;4.97;;;15.40;99.90;;;;;;5071610;28;20274;-84
2022/08/27 11:00:04;;;;;;;7.65;4.50;;;15.40;99.90;;;;;;5072688;28;20187;-84
2022/08/27 11:02:43;;;;;;;6.43;4.35;;;15.40;99.90;;;;;;5092677;28;20218;-85
2022/08/27 11:05:20;;;;;;;7.68;4.55;;;15.40;99.90;;;;;;5092134;28;20199;-84
2022/08/27 11:07:56;;;;;;;5.57;4.97;;;15.40;99.90;;;;;;5093491;28;20657;-95
2022/08/27 11:10:30;;;;;;;5.80;4.32;;;15.30;99.90;;;;;;5099265;28;20199;-89
2022/08/27 11:13:07;;;;;;;8.63;4.70;;;15.30;99.90;;;;;;5094501;28;20218;-92
2022/08/27 11:15:41;;;;;;;5.97;4.68;;;15.40;99.90;;;;;;5094357;28;20230;-88
2022/08/27 11:18:20;;;;;;;6.30;4.50;;;15.30;99.90;;;;;;5092315;28;20222;-91
2022/08/27 11:20:59;;;;;;;7.97;4.65;;;15.30;99.90;;;;;;5092471;28;20257;-89
2022/08/27 11:23:37;;;;;;;8.63;5.38;;;15.30;99.90;;;;;;5092520;28;20206;-91
2022/08/27 11:26:09;;;;;;;9.25;6.10;;;15.30;99.90;;;;;;5090737;28;20205;-95
2022/08/27 11:28:44;;;;;;;6.88;5.47;;;15.30;99.90;;;;;;5092848;28;20199;-91
2022/08/27 11:31:23;;;;;;;7.28;5.20;;;15.30;99.90;;;;;;5092578;28;20598;-91
2022/08/27 11:34:06;;;;;;;7.88;5.07;;;15.30;99.90;;;;;;5074820;28;20226;-91
2022/08/27 11:37:04;;;;;;;7.28;5.10;;;15.30;99.90;;;;;;5092601;28;20199;-89
2022/08/27 11:39:58;;;;;;;5.88;4.22;;;15.30;99.90;;;;;;5096283;28;20208;-89
2022/08/27 11:42:38;;;;;;;6.72;4.80;;;15.40;99.90;;;;;;5109002;28;20259;-89
2022/08/27 11:45:19;;;;;;;7.03;4.60;;;15.40;99.90;;;;;;5092726;28;20281;-90
2022/08/27 11:47:58;;;;;;;5.93;3.85;;;15.40;99.90;;;;;;5101361;28;20218;-88
2022/08/27 11:50:31;;;;;;;5.35;3.63;;;15.40;99.90;;;;;;5096879;28;20274;-91
2022/08/27 11:53:07;;;;;;;5.70;3.80;;;15.40;99.90;;;;;;5094075;28;20199;-93
2022/08/27 11:55:40;;;;;;;7.43;4.47;;;15.40;99.90;;;;;;5093169;28;20304;-93
2022/08/27 11:58:26;;;;;;;6.78;4.00;;;15.50;99.90;;;;;;5091660;28;20237;-84
2022/08/27 12:00:57;;;;;;;4.95;4.18;;;15.50;99.90;;;;;;5087005;28;20573;-84
2022/08/27 12:03:32;;;;;;;8.63;3.90;;;15.50;99.90;;;;;;5080039;28;20275;-84
2022/08/27 12:06:19;;;;;;;6.70;3.97;;;15.50;99.90;;;;;;5090958;28;20205;-87
2022/08/27 12:08:55;;;;;;;3.00;1.70;;;15.50;99.90;;;;;;5091663;28;20203;-87
2022/08/27 12:11:40;;;;;;;1.75;1.40;;;15.40;99.90;;;;;;5087172;28;20195;-86
2022/08/27 12:14:31;;;;;;;2.20;1.40;;;15.40;99.90;;;;;;5070972;28;20204;-86
2022/08/27 12:17:07;;;;;;;3.38;1.90;;;15.40;99.90;;;;;;5089370;28;20200;-86
2022/08/27 12:19:55;;;;;;;2.38;1.80;;;15.40;99.90;;;;;;5075827;28;20667;-85
2022/08/27 12:25:31;;;;;;;1.77;1.30;;;15.40;99.90;;;;;;5036842;28;20195;-86
2022/08/27 12:28:04;;;;;;;1.98;1.35;;;15.50;99.90;;;;;;5070282;28;20200;-86
2022/08/27 12:30:37;;;;;;;2.30;1.70;;;15.50;99.90;;;;;;5070814;28;20196;-88
2022/08/27 12:33:20;;;;;;;2.70;1.77;;;15.50;99.90;;;;;;5071264;28;20196;-88
2022/08/27 12:35:53;;;;;;;2.63;1.67;;;15.50;99.90;;;;;;5053906;28;20206;-86
2022/08/27 12:38:38;;;;;;;3.10;1.50;;;15.50;99.90;;;;;;5070842;28;20227;-87
2022/08/27 12:41:10;;;;;;;2.00;1.48;;;15.40;99.90;;;;;;5088137;28;20199;-86
2022/08/27 12:43:42;;;;;;;1.70;1.23;;;15.50;99.90;;;;;;5077724;28;20196;-87
2022/08/27 12:46:17;;;;;;;2.60;1.60;;;15.40;99.90;;;;;;5084675;28;20729;-87
2022/08/27 12:48:53;;;;;;;4.32;1.70;;;15.40;99.90;;;;;;5091274;28;20187;-87
2022/08/27 12:51:30;;;;;;;2.80;2.00;;;15.40;99.90;;;;;;5090807;28;20201;-87
2022/08/27 12:54:08;;;;;;;4.35;2.30;;;15.40;99.90;;;;;;5070971;28;20265;-87
2022/08/27 12:56:54;;;;;;;5.65;2.63;;;15.40;99.90;;;;;;5069682;28;20234;-88
2022/08/27 12:59:44;;;;;;;5.80;3.15;;;15.30;99.90;;;;;;5082196;28;20203;-86
2022/08/27 13:02:31;;;;;;;5.25;3.15;;;15.30;99.90;;;;;;5091968;28;20534;-96
2022/08/27 13:05:05;;;;;;;4.55;3.70;;;15.30;99.90;;;;;;5092525;28;20199;-93
2022/08/27 13:07:43;;;;;;;5.63;3.95;;;15.30;99.90;;;;;;5092408;28;20593;-96
2022/08/27 13:10:17;;;;;;;6.32;4.32;;;15.30;99.90;;;;;;5094012;28;20195;-96
2022/08/27 13:13:02;;;;;;;4.65;3.78;;;15.30;99.90;;;;;;5096861;28;20198;-96
2022/08/27 13:15:34;;;;;;;5.72;4.03;;;15.30;99.90;;;;;;5097381;28;20195;-95
2022/08/27 13:18:07;;;;;;;6.63;3.83;;;15.20;99.90;;;;;;5103635;28;20199;-96
2022/08/27 13:20:41;;;;;;;4.97;3.92;;;15.20;99.90;;;;;;5100530;28;20221;-96
2022/08/27 13:23:18;;;;;;;5.22;4.20;;;15.20;99.90;;;;;;5100651;28;20199;-95
2022/08/27 13:26:00;;;;;;;5.78;4.30;;;15.20;99.90;;;;;;5105443;28;20203;-96
2022/08/27 13:28:33;;;;;;;6.22;4.60;;;15.10;99.90;;;;;;5091787;28;20207;-94
2022/08/27 13:31:05;;;;;;;7.47;5.13;;;15.10;99.90;;;;;;5087116;28;20208;-95
2022/08/27 13:33:39;;;;;;;8.68;5.55;;;15.00;99.90;;;;;;5092375;28;20261;-95